Time;durP1;ratioP1;P1;durP2;ratioP2;P2;SDS_P1;SDS_P2;PMS_P1;PMS_P2;Temp;Humidity;BMP_temperature;BMP_pressure;BME280_temperature;BME280_humidity;BME280_pressure;Samples;Min_cycle;Max_cycle;Signal;HPM_P1;HPM_P2
2023/04/28 00:01:47;;;;;;;15.68;7.70;;;;;;;8.69;77.21;101333.31;4912238;29;20043;-87
2023/04/28 00:04:13;;;;;;;15.55;7.88;;;;;;;8.73;80.75;101346.22;4897402;29;20047;-87
2023/04/28 00:06:38;;;;;;;15.98;8.52;;;;;;;8.70;79.69;101335.03;4913582;29;20489;-86
2023/04/28 00:09:04;;;;;;;16.42;8.43;;;;;;;8.65;79.72;101341.97;4912812;29;20123;-87
2023/04/28 00:11:29;;;;;;;15.98;8.50;;;;;;;8.59;79.72;101329.09;4913219;29;20094;-87
2023/04/28 00:13:55;;;;;;;16.23;8.43;;;;;;;8.63;81.03;101327.34;4912992;29;20124;-86
2023/04/28 00:16:20;;;;;;;16.40;8.35;;;;;;;8.61;79.29;101324.75;4896274;29;20485;-86
2023/04/28 00:18:45;;;;;;;16.25;8.07;;;;;;;8.56;79.99;101315.34;4895707;29;20031;-86
2023/04/28 00:21:11;;;;;;;17.08;8.63;;;;;;;8.56;79.56;101321.34;4913813;29;20012;-86
2023/04/28 00:23:36;;;;;;;18.95;8.80;;;;;;;8.51;84.49;101314.53;4910749;29;20032;-86
2023/04/28 00:26:01;;;;;;;18.52;8.57;;;;;;;8.52;85.37;101321.41;4913218;29;20032;-87
2023/04/28 00:28:27;;;;;;;16.08;8.48;;;;;;;8.49;85.96;101322.28;4895417;29;20028;-87
2023/04/28 00:30:52;;;;;;;18.80;8.43;;;;;;;8.50;86.94;101326.56;4913753;29;20036;-87
2023/04/28 00:33:17;;;;;;;19.00;8.82;;;;;;;8.44;83.51;101318.88;4912171;29;20051;-87
2023/04/28 00:35:43;;;;;;;16.75;8.50;;;;;;;8.42;85.11;101317.16;4912699;29;20040;-87
2023/04/28 00:38:08;;;;;;;16.98;8.40;;;;;;;8.44;86.68;101308.53;4892732;29;20020;-87
2023/04/28 00:40:35;;;;;;;15.85;8.52;;;;;;;8.37;85.11;101298.25;4896070;29;20052;-87
2023/04/28 00:43:01;;;;;;;17.30;8.63;;;;;;;8.40;88.62;101296.50;4894031;29;20031;-87
2023/04/28 00:45:26;;;;;;;19.90;9.25;;;;;;;8.37;87.24;101293.09;4911150;29;20024;-87
2023/04/28 00:47:52;;;;;;;20.75;9.30;;;;;;;8.34;88.59;101288.81;4898647;29;20035;-87
2023/04/28 00:50:18;;;;;;;18.65;9.32;;;;;;;8.34;90.17;101288.81;4914417;29;20032;-87
2023/04/28 00:52:43;;;;;;;17.30;8.95;;;;;;;8.28;89.53;101281.06;4913541;29;20028;-87
2023/04/28 00:55:08;;;;;;;17.58;8.50;;;;;;;8.29;90.58;101285.38;4915620;29;20035;-87
2023/04/28 00:57:35;;;;;;;17.83;8.80;;;;;;;8.26;90.42;101280.22;4915533;29;20015;-87
2023/04/28 01:00:03;;;;;;;16.73;8.73;;;;;;;8.25;92.62;101292.28;4915567;29;20028;-88
2023/04/28 01:02:29;;;;;;;18.08;8.98;;;;;;;8.24;92.45;101284.56;4911349;29;20040;-87
2023/04/28 01:04:56;;;;;;;19.08;8.88;;;;;;;8.12;92.28;101258.81;4898432;29;20136;-88
2023/04/28 01:07:21;;;;;;;20.17;9.27;;;;;;;8.19;93.08;101270.78;4915632;29;20050;-87
2023/04/28 01:09:47;;;;;;;18.48;9.15;;;;;;;8.11;89.16;101257.09;4916450;29;20118;-87
2023/04/28 01:12:12;;;;;;;16.73;8.88;;;;;;;8.16;92.60;101265.66;4882781;29;20036;-87
2023/04/28 01:14:38;;;;;;;19.30;9.15;;;;;;;8.12;92.32;101262.22;4916276;29;20036;-87
2023/04/28 01:17:03;;;;;;;18.83;8.90;;;;;;;8.13;92.48;101260.50;4914612;29;20454;-88
2023/04/28 01:19:29;;;;;;;20.55;9.48;;;;;;;8.12;90.43;101263.97;4913879;29;20036;-87
2023/04/28 01:21:54;;;;;;;19.23;9.25;;;;;;;8.12;94.18;101256.25;4915162;29;20031;-87
2023/04/28 01:24:19;;;;;;;20.55;9.57;;;;;;;7.98;94.11;101233.09;4913534;29;20028;-87
2023/04/28 01:26:45;;;;;;;18.88;9.02;;;;;;;8.07;93.62;101239.91;4914400;29;20171;-87
2023/04/28 01:29:10;;;;;;;18.80;9.13;;;;;;;7.87;90.44;101204.75;4914865;29;20735;-87
2023/04/28 01:31:36;;;;;;;17.75;9.05;;;;;;;8.03;94.01;101223.59;4894617;29;20445;-88
2023/04/28 01:34:01;;;;;;;18.02;9.27;;;;;;;8.03;94.45;101223.59;4914071;29;20520;-87
2023/04/28 01:36:27;;;;;;;18.80;9.32;;;;;;;7.94;94.60;101211.59;4914316;29;20785;-87
2023/04/28 01:38:53;;;;;;;18.02;9.15;;;;;;;7.98;92.79;101219.34;4914157;29;20047;-88
2023/04/28 01:41:19;;;;;;;16.58;9.02;;;;;;;8.00;92.38;101233.06;4915152;29;20103;-87
2023/04/28 01:43:44;;;;;;;19.83;9.48;;;;;;;7.94;93.93;101223.66;4914849;29;20143;-87
2023/04/28 01:46:10;;;;;;;20.67;9.57;;;;;;;7.95;95.97;101220.19;4913654;29;20047;-87
2023/04/28 01:48:35;;;;;;;19.75;9.70;;;;;;;7.93;95.49;101217.63;4914889;29;20711;-88
2023/04/28 01:51:01;;;;;;;20.50;9.38;;;;;;;7.95;94.10;101212.47;4896406;29;20091;-87
2023/04/28 01:53:26;;;;;;;20.67;9.48;;;;;;;7.91;94.43;101209.03;4896785;29;20028;-87
2023/04/28 01:55:52;;;;;;;17.90;9.40;;;;;;;7.90;96.18;101207.34;4897239;29;20039;-87
2023/04/28 01:58:17;;;;;;;19.10;9.55;;;;;;;7.90;93.84;101202.19;4913139;29;20477;-87
2023/04/28 02:00:43;;;;;;;19.60;9.80;;;;;;;7.88;92.31;101201.31;4913834;29;20040;-87
2023/04/28 02:03:08;;;;;;;17.95;9.77;;;;;;;7.89;95.63;101195.28;4913945;29;20053;-87
2023/04/28 02:05:33;;;;;;;21.38;10.07;;;;;;;7.91;96.19;101200.47;4913803;29;20041;-87
2023/04/28 02:07:59;;;;;;;21.80;10.02;;;;;;;7.89;94.17;101189.28;4913576;29;20087;-87
2023/04/28 02:10:24;;;;;;;19.90;9.30;;;;;;;7.87;92.37;101196.16;4898112;29;20028;-87
2023/04/28 02:12:49;;;;;;;19.27;9.32;;;;;;;7.82;92.69;101190.19;4912543;29;20075;-87
2023/04/28 02:15:15;;;;;;;22.63;9.80;;;;;;;7.86;93.56;101200.47;4915613;29;20036;-87
2023/04/28 02:17:41;;;;;;;17.67;9.25;;;;;;;7.89;92.85;101202.19;4914394;29;20024;-87
2023/04/28 02:20:07;;;;;;;20.52;9.65;;;;;;;7.90;93.95;101198.75;4913160;29;20027;-88
2023/04/28 02:22:32;;;;;;;18.88;9.48;;;;;;;7.88;95.35;101193.56;4895458;29;20136;-87
2023/04/28 02:24:57;;;;;;;19.73;9.77;;;;;;;7.89;93.56;101199.59;4897474;29;20066;-87
2023/04/28 02:27:23;;;;;;;19.85;9.80;;;;;;;7.91;96.87;101193.53;4915842;29;20032;-87
2023/04/28 02:29:48;;;;;;;19.90;9.40;;;;;;;7.88;97.03;101179.81;4913103;29;20034;-88
2023/04/28 02:32:13;;;;;;;20.65;10.30;;;;;;;7.92;96.03;101179.78;4898180;29;20338;-88
2023/04/28 02:34:39;;;;;;;21.90;10.07;;;;;;;7.87;95.81;101163.47;4914895;29;20028;-87
2023/04/28 02:37:04;;;;;;;19.85;10.13;;;;;;;7.87;96.27;101158.31;4913524;29;20092;-87
2023/04/28 02:39:31;;;;;;;17.77;9.55;;;;;;;7.89;97.43;101156.59;4913412;29;20121;-88
2023/04/28 02:41:57;;;;;;;18.90;9.70;;;;;;;7.81;94.85;101135.13;4912126;29;20031;-88
2023/04/28 02:44:22;;;;;;;20.38;10.05;;;;;;;7.83;96.85;101141.16;4912933;29;20027;-87
2023/04/28 02:46:48;;;;;;;22.15;10.10;;;;;;;7.85;95.52;101136.81;4897133;29;20036;-88
2023/04/28 02:49:13;;;;;;;21.20;10.20;;;;;;;7.86;97.38;101135.94;4913668;29;20111;-87
2023/04/28 02:51:39;;;;;;;18.52;9.77;;;;;;;7.85;96.49;101128.22;4912743;29;20043;-88
2023/04/28 02:54:05;;;;;;;20.00;10.00;;;;;;;7.88;97.70;101128.19;4912675;29;20047;-87
2023/04/28 02:56:30;;;;;;;21.17;10.38;;;;;;;7.86;97.63;101112.72;4914695;29;20028;-88
2023/04/28 02:58:55;;;;;;;20.73;10.27;;;;;;;7.84;97.73;101109.31;4904782;29;20044;-87
2023/04/28 03:01:21;;;;;;;20.92;10.35;;;;;;;7.81;98.58;101108.47;4907530;29;20435;-87
2023/04/28 03:03:46;;;;;;;23.08;11.13;;;;;;;7.90;98.56;101122.16;4914089;29;20060;-87
2023/04/28 03:06:12;;;;;;;21.92;11.15;;;;;;;7.89;98.89;101104.97;4913683;29;20477;-87
2023/04/28 03:08:37;;;;;;;18.87;10.17;;;;;;;7.91;98.85;101107.53;4894951;29;20996;-88
2023/04/28 03:11:02;;;;;;;21.80;10.95;;;;;;;7.90;98.01;101101.53;4895618;29;20395;-88
2023/04/28 03:13:28;;;;;;;24.20;10.85;;;;;;;7.94;96.38;101108.34;4895069;29;21052;-87
2023/04/28 03:15:54;;;;;;;22.70;10.98;;;;;;;7.93;97.10;101109.22;4912519;29;20027;-87
2023/04/28 03:18:21;;;;;;;21.38;10.68;;;;;;;7.94;99.20;101105.78;4895939;29;20031;-88
2023/04/28 03:20:46;;;;;;;23.15;11.32;;;;;;;7.92;100.00;101104.91;4912834;29;20036;-88
2023/04/28 03:23:11;;;;;;;25.63;12.23;;;;;;;7.96;98.71;101110.94;4911022;29;20103;-87
2023/04/28 03:25:37;;;;;;;24.95;12.15;;;;;;;7.95;98.55;101106.63;4896895;29;20043;-87
2023/04/28 03:28:02;;;;;;;25.55;11.77;;;;;;;7.99;100.00;101104.88;4895694;29;20027;-87
2023/04/28 03:30:27;;;;;;;23.90;12.52;;;;;;;8.02;100.00;101105.72;4896286;29;20039;-87
2023/04/28 03:32:53;;;;;;;21.52;11.88;;;;;;;8.06;100.00;101107.38;4911761;29;20123;-87
2023/04/28 03:35:18;;;;;;;24.73;12.73;;;;;;;8.04;99.47;101096.22;4912289;29;20111;-87
2023/04/28 03:37:43;;;;;;;22.70;11.87;;;;;;;8.06;97.83;101107.38;4912105;29;20276;-87
2023/04/28 03:40:09;;;;;;;25.90;13.05;;;;;;;8.04;99.68;101101.41;4912594;29;20295;-86
2023/04/28 03:42:34;;;;;;;22.23;11.95;;;;;;;8.07;100.00;101096.19;4910730;29;20170;-87
2023/04/28 03:45:00;;;;;;;23.45;12.20;;;;;;;8.11;98.71;101095.31;4912448;29;20119;-87
2023/04/28 03:47:25;;;;;;;24.48;12.57;;;;;;;8.11;100.00;101084.13;4911467;29;20068;-87
2023/04/28 03:49:51;;;;;;;24.65;12.50;;;;;;;8.15;100.00;101080.63;4895394;29;20119;-87
2023/04/28 03:52:16;;;;;;;24.75;13.10;;;;;;;8.17;100.00;101089.22;4911583;29;20027;-87
2023/04/28 03:54:41;;;;;;;23.02;12.45;;;;;;;8.19;100.00;101083.16;4913066;29;20039;-87
2023/04/28 03:57:07;;;;;;;28.73;13.55;;;;;;;8.18;100.00;101080.63;4913122;29;20055;-88
2023/04/28 03:59:32;;;;;;;26.52;13.38;;;;;;;8.22;100.00;101088.31;4912289;29;20067;-87
2023/04/28 04:01:57;;;;;;;23.98;13.13;;;;;;;8.23;100.00;101090.03;4909080;29;20023;-87
2023/04/28 04:04:23;;;;;;;24.50;13.13;;;;;;;8.25;100.00;101077.97;4912552;29;20060;-87
2023/04/28 04:06:48;;;;;;;24.50;13.45;;;;;;;8.25;100.00;101080.53;4895825;29;21144;-87
2023/04/28 04:09:14;;;;;;;28.13;13.80;;;;;;;8.24;100.00;101084.00;4897318;29;20291;-88
2023/04/28 04:11:39;;;;;;;27.58;14.18;;;;;;;8.31;100.00;101088.25;4911725;29;20040;-87
2023/04/28 04:14:05;;;;;;;26.20;14.00;;;;;;;8.28;100.00;101074.47;4910922;29;20104;-87
2023/04/28 04:16:30;;;;;;;26.33;14.27;;;;;;;8.32;100.00;101073.63;4911825;29;20039;-88
2023/04/28 04:18:56;;;;;;;28.75;14.98;;;;;;;8.37;100.00;101076.13;4909115;29;20032;-87
2023/04/28 04:21:21;;;;;;;26.55;14.32;;;;;;;8.31;100.00;101058.97;4894415;29;20028;-87
2023/04/28 04:23:46;;;;;;;27.15;14.23;;;;;;;8.32;100.00;101061.53;4898763;29;20841;-87
2023/04/28 04:26:12;;;;;;;24.88;14.13;;;;;;;8.37;100.00;101061.50;4916063;29;20032;-87
2023/04/28 04:28:37;;;;;;;29.73;15.07;;;;;;;8.43;100.00;101068.31;4899991;29;20039;-87
2023/04/28 04:31:02;;;;;;;29.17;14.77;;;;;;;8.37;100.00;101053.75;4897513;29;20036;-87
2023/04/28 04:33:28;;;;;;;29.35;14.85;;;;;;;8.41;100.00;101058.00;4916437;29;20088;-87
2023/04/28 04:35:53;;;;;;;27.38;15.02;;;;;;;8.43;100.00;101064.00;4915362;29;20039;-87
2023/04/28 04:38:19;;;;;;;29.48;14.32;;;;;;;8.45;100.00;101062.28;4916612;29;20480;-89
2023/04/28 04:40:44;;;;;;;27.60;15.07;;;;;;;8.44;100.00;101055.38;4914324;29;20031;-88
2023/04/28 04:43:10;;;;;;;33.58;15.27;;;;;;;8.51;100.00;101069.09;4916617;29;20200;-89
2023/04/28 04:45:35;;;;;;;27.05;14.85;;;;;;;8.43;100.00;101043.34;4912308;29;20035;-87
2023/04/28 04:48:01;;;;;;;28.45;15.95;;;;;;;8.44;100.00;101052.81;4915463;29;20036;-88
2023/04/28 04:50:27;;;;;;;31.63;15.88;;;;;;;8.52;100.00;101052.72;4916069;29;20497;-88
2023/04/28 04:52:55;;;;;;;27.17;14.90;;;;;;;8.54;100.00;101044.06;4911288;29;20039;-88
2023/04/28 04:55:20;;;;;;;29.38;15.98;;;;;;;8.61;100.00;101055.16;4914102;29;20028;-88
2023/04/28 04:57:46;;;;;;;31.05;15.40;;;;;;;8.62;100.00;101047.41;4898059;29;20038;-87
2023/04/28 05:00:12;;;;;;;30.48;16.08;;;;;;;8.62;100.00;101052.56;4912822;29;20063;-87
2023/04/28 05:02:38;;;;;;;31.95;16.25;;;;;;;8.64;100.00;101043.09;4898242;29;20048;-87
2023/04/28 05:05:05;;;;;;;31.88;15.75;;;;;;;8.68;100.00;101047.31;4914027;29;20036;-87
2023/04/28 05:07:30;;;;;;;29.73;17.00;;;;;;;8.67;100.00;101029.25;4911187;29;20032;-87
2023/04/28 05:09:55;;;;;;;29.83;16.55;;;;;;;8.77;100.00;101040.34;4907392;29;21795;-86
2023/04/28 05:12:21;;;;;;;28.60;16.58;;;;;;;8.76;100.00;101043.78;4889601;29;20032;-87
2023/04/28 05:14:46;;;;;;;29.70;16.50;;;;;;;8.82;100.00;101048.88;4895347;29;20031;-88
2023/04/28 05:17:11;;;;;;;30.55;16.73;;;;;;;8.87;100.00;101045.34;4915242;29;20482;-87
2023/04/28 05:19:37;;;;;;;30.17;16.98;;;;;;;8.92;100.00;101037.56;4899867;29;20023;-86
2023/04/28 05:22:02;;;;;;;29.30;16.33;;;;;;;8.96;100.00;101039.19;4899103;29;20060;-86
2023/04/28 05:24:27;;;;;;;28.20;16.77;;;;;;;9.00;100.00;101030.56;4915220;29;20524;-86
2023/04/28 05:26:53;;;;;;;27.33;16.08;;;;;;;9.07;100.00;101017.50;4915444;29;20044;-87
2023/04/28 05:29:20;;;;;;;33.55;17.63;;;;;;;9.15;100.00;101007.03;4893481;29;20027;-87
2023/04/28 05:31:45;;;;;;;32.08;16.85;;;;;;;9.27;100.00;101013.75;4899243;29;20056;-87
2023/04/28 05:34:11;;;;;;;30.25;16.58;;;;;;;9.35;100.00;101002.41;4898049;29;20032;-87
2023/04/28 05:36:37;;;;;;;32.30;16.73;;;;;;;9.39;100.00;101001.47;4897668;29;20039;-86
2023/04/28 05:39:02;;;;;;;28.70;16.58;;;;;;;9.46;100.00;101013.44;4898169;29;20670;-86
2023/04/28 05:41:27;;;;;;;30.67;16.45;;;;;;;9.46;100.00;101010.84;4914687;29;20508;-86
2023/04/28 05:43:53;;;;;;;31.98;16.88;;;;;;;9.49;100.00;101018.56;4915482;29;20043;-87
2023/04/28 05:46:18;;;;;;;28.87;16.03;;;;;;;9.50;100.00;101015.09;4915742;29;20428;-87
2023/04/28 05:48:44;;;;;;;28.13;16.02;;;;;;;9.56;100.00;101019.31;4912705;29;20285;-86
2023/04/28 05:51:09;;;;;;;29.08;16.00;;;;;;;9.60;100.00;101014.94;4914082;29;20024;-86
2023/04/28 05:53:35;;;;;;;32.78;16.45;;;;;;;9.66;100.00;101013.09;4896091;29;20041;-86
2023/04/28 05:56:00;;;;;;;28.83;16.30;;;;;;;9.73;100.00;101008.69;4912994;29;20028;-87
2023/04/28 05:58:25;;;;;;;28.52;16.20;;;;;;;9.76;100.00;101006.00;4896718;29;20023;-86
2023/04/28 06:00:52;;;;;;;28.48;15.63;;;;;;;9.83;100.00;101007.63;4914672;29;20131;-86
2023/04/28 06:03:17;;;;;;;28.73;16.05;;;;;;;9.87;100.00;101007.56;4914234;29;20056;-87
2023/04/28 06:05:44;;;;;;;28.83;16.02;;;;;;;9.91;100.00;101013.50;4913606;29;20039;-87
2023/04/28 06:08:09;;;;;;;29.42;15.65;;;;;;;10.02;100.00;101018.50;4911233;29;20031;-86
2023/04/28 06:10:34;;;;;;;28.75;15.20;;;;;;;10.08;100.00;101024.44;4912710;29;20047;-87
2023/04/28 06:13:01;;;;;;;26.92;15.65;;;;;;;10.10;100.00;101011.47;4895301;29;20031;-86
2023/04/28 06:15:26;;;;;;;27.35;15.77;;;;;;;10.18;100.00;101005.25;4913465;29;20027;-86
2023/04/28 06:17:52;;;;;;;28.27;15.93;;;;;;;10.25;100.00;101011.16;4896839;29;20055;-86
2023/04/28 06:20:17;;;;;;;26.15;15.60;;;;;;;10.33;100.00;101018.78;4896027;29;20103;-86
2023/04/28 06:22:42;;;;;;;28.17;15.00;;;;;;;10.37;100.00;101025.66;4913974;29;20050;-86
2023/04/28 06:25:08;;;;;;;25.73;15.68;;;;;;;10.36;100.00;101022.19;4913328;29;20485;-87
2023/04/28 06:27:33;;;;;;;27.20;15.52;;;;;;;10.43;100.00;101016.00;4908188;29;20088;-86
2023/04/28 06:29:59;;;;;;;24.08;15.07;;;;;;;10.45;100.00;101010.78;4894464;29;20082;-86
2023/04/28 06:32:24;;;;;;;26.60;14.90;;;;;;;10.53;100.00;101016.66;4913667;29;20067;-86
2023/04/28 06:34:49;;;;;;;25.77;15.52;;;;;;;10.63;100.00;101002.63;4911888;29;20115;-86
2023/04/28 06:37:15;;;;;;;27.20;16.17;;;;;;;10.75;100.00;101004.94;4913019;29;20024;-86
2023/04/28 06:39:40;;;;;;;28.10;15.93;;;;;;;10.86;100.00;101010.75;4897311;29;20047;-86
2023/04/28 06:42:06;;;;;;;26.52;15.30;;;;;;;10.88;100.00;101013.31;4913440;29;20119;-86
2023/04/28 06:44:31;;;;;;;27.10;15.43;;;;;;;10.86;100.00;101013.34;4913496;29;20114;-85
2023/04/28 06:46:56;;;;;;;26.37;15.63;;;;;;;10.87;100.00;101011.59;4896971;29;20030;-86
2023/04/28 06:49:22;;;;;;;28.02;15.30;;;;;;;10.93;100.00;101009.72;4914556;29;20324;-85
2023/04/28 06:51:47;;;;;;;26.60;15.43;;;;;;;11.02;100.00;101008.66;4914455;29;20468;-86
2023/04/28 06:54:12;;;;;;;26.83;15.07;;;;;;;11.13;100.00;101023.97;4910068;29;20051;-85
2023/04/28 06:56:38;;;;;;;27.77;15.70;;;;;;;11.09;100.00;101011.09;4914462;29;20043;-86
2023/04/28 06:59:03;;;;;;;27.02;16.02;;;;;;;11.09;100.00;101011.09;4914207;29;20247;-86
2023/04/28 07:01:28;;;;;;;24.30;15.80;;;;;;;11.13;100.00;101011.00;4913989;29;20529;-86
2023/04/28 07:03:54;;;;;;;23.85;14.98;;;;;;;11.14;100.00;100994.56;4910250;29;20055;-86
2023/04/28 07:06:19;;;;;;;26.60;15.65;;;;;;;11.19;100.00;100993.53;4913984;29;20269;-87
2023/04/28 07:08:45;;;;;;;26.67;15.50;;;;;;;11.31;100.00;100989.81;4914556;29;20582;-86
2023/04/28 07:11:10;;;;;;;24.00;15.13;;;;;;;11.52;100.00;101002.28;4910611;29;20039;-88
2023/04/28 07:13:35;;;;;;;25.42;15.40;;;;;;;11.70;100.00;100985.38;4912726;29;20063;-87
2023/04/28 07:16:01;;;;;;;24.87;14.73;;;;;;;11.79;100.00;100993.81;4895650;29;20424;-88
2023/04/28 07:18:26;;;;;;;24.65;15.35;;;;;;;11.84;100.00;100983.28;4913854;29;20291;-87
2023/04/28 07:20:52;;;;;;;22.67;14.73;;;;;;;11.96;100.00;100982.09;4895989;29;20518;-88
2023/04/28 07:23:17;;;;;;;24.38;15.50;;;;;;;12.12;100.00;100986.84;4913691;29;20515;-87
2023/04/28 07:25:42;;;;;;;24.25;15.02;;;;;;;12.31;100.00;100981.97;4915170;29;20031;-88
2023/04/28 07:28:08;;;;;;;25.05;14.85;;;;;;;12.43;100.00;100983.38;4913438;29;20032;-88
2023/04/28 07:30:34;;;;;;;25.52;15.00;;;;;;;12.54;100.00;100989.13;4913585;29;20090;-88
2023/04/28 07:33:00;;;;;;;23.27;15.00;;;;;;;12.60;100.00;100978.53;4914970;29;20405;-88
2023/04/28 07:35:25;;;;;;;24.48;15.00;;;;;;;12.73;100.00;100963.41;4913581;29;20020;-88
2023/04/28 07:37:51;;;;;;;26.02;15.32;;;;;;;12.87;100.00;100967.28;4914122;29;20035;-88
2023/04/28 07:40:17;;;;;;;24.33;14.75;;;;;;;13.15;100.00;100984.69;4913292;29;20043;-88
2023/04/28 07:42:43;;;;;;;23.17;14.10;;;;;;;13.21;100.00;100982.72;4910043;29;21517;-87
2023/04/28 07:45:09;;;;;;;22.13;13.98;;;;;;;13.21;100.00;100990.53;4899899;29;20485;-87
2023/04/28 07:47:35;;;;;;;21.98;14.18;;;;;;;13.09;100.00;100984.84;4909838;29;20033;-87
2023/04/28 07:50:05;;;;;;;21.90;14.55;;;;;;;13.04;100.00;100985.81;4896530;29;20032;-89
2023/04/28 07:52:31;;;;;;;20.30;13.90;;;;;;;13.11;100.00;100991.69;4898518;29;20038;-88
2023/04/28 07:54:58;;;;;;;25.05;15.52;;;;;;;13.08;100.00;100997.00;4913286;29;20032;-88
2023/04/28 07:57:23;;;;;;;21.67;14.05;;;;;;;13.07;100.00;100993.53;4916056;29;20075;-88
2023/04/28 07:59:49;;;;;;;21.10;14.25;;;;;;;13.09;100.00;100990.91;4899574;29;20036;-87
2023/04/28 08:02:15;;;;;;;23.08;14.23;;;;;;;13.02;100.00;100997.19;4915293;29;20040;-88
2023/04/28 08:04:40;;;;;;;22.08;14.07;;;;;;;13.01;100.00;100992.88;4916741;29;21158;-88
2023/04/28 08:07:07;;;;;;;19.70;13.38;;;;;;;13.01;100.00;101008.50;4918757;29;20099;-88
2023/04/28 08:09:33;;;;;;;20.15;13.05;;;;;;;12.95;100.00;100993.94;4899216;29;20024;-88
2023/04/28 08:11:59;;;;;;;21.58;13.48;;;;;;;12.99;100.00;100999.88;4911898;29;20031;-88
2023/04/28 08:14:25;;;;;;;19.70;13.32;;;;;;;13.05;100.00;101000.53;4915602;29;20071;-88
2023/04/28 08:16:50;;;;;;;21.83;14.10;;;;;;;13.12;100.00;101000.34;4900550;29;20083;-88
2023/04/28 08:19:16;;;;;;;22.23;14.65;;;;;;;13.08;100.00;100989.19;4916004;29;20083;-88
2023/04/28 08:21:41;;;;;;;23.05;14.10;;;;;;;13.03;100.00;100994.53;4916213;29;20036;-88
2023/04/28 08:24:09;;;;;;;22.15;14.07;;;;;;;12.99;100.00;100985.13;4899777;29;20509;-87
2023/04/28 08:26:35;;;;;;;19.60;13.25;;;;;;;13.06;100.00;100985.78;4898125;29;20387;-87
2023/04/28 08:29:00;;;;;;;21.45;13.82;;;;;;;13.05;100.00;100990.13;4900427;29;20548;-87
2023/04/28 08:31:26;;;;;;;20.55;13.70;;;;;;;13.12;100.00;100996.00;4918510;29;20039;-88
2023/04/28 08:33:52;;;;;;;21.00;13.23;;;;;;;13.21;100.00;100989.69;4896987;29;20074;-88
2023/04/28 08:36:17;;;;;;;18.73;13.55;;;;;;;13.19;100.00;101000.13;4898905;29;20028;-89
2023/04/28 08:38:44;;;;;;;21.17;13.73;;;;;;;13.23;100.00;101006.97;4917378;29;20553;-89
2023/04/28 08:41:12;;;;;;;19.00;13.77;;;;;;;13.25;100.00;100996.47;4917306;29;20047;-88
2023/04/28 08:43:41;;;;;;;20.50;14.80;;;;;;;13.33;100.00;100989.28;4901068;29;20627;-88
2023/04/28 08:46:07;;;;;;;21.27;13.98;;;;;;;13.35;100.00;100990.94;4914143;29;20448;-89
2023/04/28 08:48:46;;;;;;;19.75;13.10;;;;;;;13.40;100.00;100996.84;4916228;29;20933;-89
2023/04/28 08:51:24;;;;;;;19.67;14.32;;;;;;;13.37;100.00;101002.13;4902318;29;20042;-89
2023/04/28 08:53:53;;;;;;;21.90;15.10;;;;;;;13.36;100.00;100997.84;4913886;29;20151;-89
2023/04/28 08:56:21;;;;;;;20.02;14.32;;;;;;;13.44;100.00;101002.81;4916363;29;20023;-90
2023/04/28 08:58:48;;;;;;;23.02;14.77;;;;;;;13.46;100.00;100990.56;4914280;29;20520;-89
2023/04/28 09:01:13;;;;;;;19.02;13.90;;;;;;;13.53;100.00;100992.06;4917142;29;20098;-88
2023/04/28 09:03:39;;;;;;;20.70;14.52;;;;;;;13.53;100.00;100986.00;4898270;29;20051;-87
2023/04/28 09:06:04;;;;;;;24.63;15.20;;;;;;;13.59;100.00;100996.22;4916270;29;20066;-88
2023/04/28 09:08:30;;;;;;;21.73;14.93;;;;;;;13.55;100.00;100994.63;4914471;29;20430;-88
2023/04/28 09:11:09;;;;;;;20.45;14.45;;;;;;;13.53;100.00;101001.63;4915824;29;20082;-87
2023/04/28 09:13:35;;;;;;;24.33;16.48;;;;;;;13.51;100.00;101001.69;4915611;29;20613;-87
2023/04/28 09:16:02;;;;;;;23.42;16.20;;;;;;;13.54;100.00;100998.13;4902906;29;20374;-88
2023/04/28 09:18:32;;;;;;;20.05;15.07;;;;;;;13.52;100.00;101000.78;4915175;29;20031;-87
2023/04/28 09:21:09;;;;;;;21.58;14.93;;;;;;;13.59;100.00;101001.44;4896393;29;20596;-87
2023/04/28 09:23:48;;;;;;;25.13;15.85;;;;;;;13.61;100.00;100991.81;4915817;29;20083;-86
2023/04/28 09:26:13;;;;;;;23.33;15.40;;;;;;;13.60;100.00;100993.56;4915833;29;20074;-87
2023/04/28 09:28:38;;;;;;;24.67;16.60;;;;;;;13.61;100.00;100984.84;4915988;29;20576;-88
2023/04/28 09:31:04;;;;;;;24.98;16.83;;;;;;;13.68;100.00;100983.75;4899568;29;20091;-87
2023/04/28 09:33:29;;;;;;;25.33;16.52;;;;;;;13.76;100.00;100992.16;4916251;29;20039;-87
2023/04/28 09:35:55;;;;;;;27.30;17.90;;;;;;;13.89;100.00;100992.59;4916670;29;20034;-87
2023/04/28 09:45:25;;;;;;;26.00;16.33;;;;;;;13.92;100.00;100978.59;4812309;29;20075;-86
2023/04/28 09:47:51;;;;;;;22.92;15.65;;;;;;;14.00;100.00;100992.19;4828985;29;20037;-86
2023/04/28 09:50:17;;;;;;;27.45;16.63;;;;;;;13.99;100.00;100991.34;4908408;29;20053;-86
2023/04/28 09:52:44;;;;;;;23.75;16.10;;;;;;;14.04;100.00;100996.41;4913240;29;20034;-86
2023/04/28 09:55:11;;;;;;;23.45;15.55;;;;;;;14.06;100.00;101005.84;4914736;29;21468;-86
2023/04/28 09:57:37;;;;;;;23.65;15.65;;;;;;;14.04;100.00;100994.66;4901248;29;20020;-86
2023/04/28 10:00:06;;;;;;;24.60;16.08;;;;;;;14.05;100.00;100987.69;4916904;29;20028;-87
2023/04/28 10:02:36;;;;;;;23.17;15.10;;;;;;;14.12;100.00;100999.59;4913746;29;20126;-87
2023/04/28 10:05:02;;;;;;;23.42;15.70;;;;;;;14.15;100.00;100991.66;4895935;29;20031;-86
2023/04/28 10:07:29;;;;;;;26.05;16.73;;;;;;;14.15;100.00;100992.50;4913990;29;20370;-86
2023/04/28 10:09:55;;;;;;;23.67;15.55;;;;;;;14.16;100.00;100998.56;4914095;29;20023;-86
2023/04/28 10:12:23;;;;;;;26.98;15.77;;;;;;;14.15;100.00;100997.72;4913621;29;20032;-86
2023/04/28 10:14:49;;;;;;;26.17;15.68;;;;;;;14.13;100.00;100991.69;4899353;29;20158;-86
2023/04/28 10:17:18;;;;;;;27.10;15.50;;;;;;;14.22;100.00;100988.78;4898229;29;20028;-86
2023/04/28 10:19:46;;;;;;;23.73;15.57;;;;;;;14.29;100.00;100996.38;4914000;29;20394;-86
2023/04/28 10:22:50;;;;;;;25.25;15.35;;;;;;;14.34;100.00;100995.28;4896439;29;20056;-86
2023/04/28 10:25:34;;;;;;;25.75;14.52;;;;;;;14.37;100.00;100994.34;4897934;29;20031;-86
2023/04/28 10:28:00;;;;;;;25.23;15.57;;;;;;;14.35;100.00;100991.78;4914677;29;20070;-86
2023/04/28 10:30:30;;;;;;;25.80;14.95;;;;;;;14.39;100.00;100990.81;4914579;29;20146;-86
2023/04/28 10:33:08;;;;;;;22.80;14.25;;;;;;;14.40;100.00;100995.09;4912880;29;20166;-86
2023/04/28 10:35:35;;;;;;;23.63;14.80;;;;;;;14.37;100.00;100994.34;4894957;29;20035;-87
2023/04/28 10:38:08;;;;;;;24.23;15.13;;;;;;;14.37;100.00;100992.56;4911211;29;20091;-87
2023/04/28 10:40:34;;;;;;;23.83;14.63;;;;;;;14.42;100.00;100998.50;4912755;29;20035;-86
2023/04/28 10:43:00;;;;;;;27.42;15.77;;;;;;;14.51;100.00;100992.94;4914075;29;20036;-86
2023/04/28 10:45:47;;;;;;;25.02;15.77;;;;;;;14.59;100.00;100990.91;4914139;29;20104;-88
2023/04/28 10:48:13;;;;;;;26.85;15.15;;;;;;;14.69;100.00;100986.19;4894610;29;20028;-87
2023/04/28 10:51:02;;;;;;;25.88;15.75;;;;;;;14.87;100.00;100982.03;4897237;29;20900;-87
2023/04/28 10:53:47;;;;;;;26.30;16.27;;;;;;;14.88;100.00;100995.00;4896995;29;20039;-87
2023/04/28 10:56:24;;;;;;;30.10;18.10;;;;;;;14.82;100.00;100990.00;4912993;29;20031;-87
2023/04/28 10:58:57;;;;;;;39.20;21.80;;;;;;;14.72;100.00;100993.03;4914298;29;20024;-87
2023/04/28 11:01:31;;;;;;;40.03;22.10;;;;;;;14.62;100.00;100987.31;4898340;29;20126;-87
2023/04/28 11:04:12;;;;;;;42.17;22.30;;;;;;;14.64;100.00;100990.72;4912482;29;20620;-87
2023/04/28 11:06:40;;;;;;;39.13;22.52;;;;;;;14.70;100.00;100987.88;4913802;29;20115;-87
2023/04/28 11:09:16;;;;;;;43.65;24.38;;;;;;;14.73;100.00;100989.53;4896485;29;20034;-87
2023/04/28 11:12:00;;;;;;;41.35;24.75;;;;;;;14.76;100.00;100982.41;4913518;29;20429;-87
2023/04/28 11:14:25;;;;;;;48.07;24.90;;;;;;;14.83;100.00;100980.41;4896912;29;20039;-87